EJU7PC LFPG-LGAV
Flight info
| Callsign | EJU7PC |
|---|---|
| Flight time | 2h 50m |
| Altitude | 35000 |
| Route | LANVI DCT DEVDI DCT RIPUS DCT RESIA DCT CHI DCT BUSER DCT EDUGI DCT XAMIT DCT NOSTO UN7 NEMES |
| Aircraft | A320/M-SDE3FGHIRWY/LB1 |
Departure
| Time | 2026-05-06 11:14 |
|---|---|
| Airport | Charles de Gaulle International Airport (LFPG) |
Arrival
| Time | 2026-05-06 14:04 |
|---|---|
| Airport | Athens Eleftherios Venizelos International Airport (LGAV) |
| Time | Latitude | Longitude | Altitude | Speed | Heading |
|---|---|---|---|---|---|
| 2026-05-06 10:55 | 49.00153 | 2.59210 | 361 ft | 0 kts | 265° |
| 2026-05-06 11:07 | 49.00154 | 2.59229 | 364 ft | 3 kts | 264° |
| 2026-05-06 11:08 | 49.00157 | 2.59260 | 363 ft | 3 kts | 260° |
| 2026-05-06 11:08 | 49.00161 | 2.59290 | 361 ft | 3 kts | 255° |
| 2026-05-06 11:08 | 49.00167 | 2.59319 | 364 ft | 3 kts | 244° |
| 2026-05-06 11:08 | 49.00177 | 2.59344 | 363 ft | 3 kts | 218° |
| 2026-05-06 11:09 | 49.00190 | 2.59354 | 359 ft | 1 kts | 176° |
| 2026-05-06 11:09 | 49.00195 | 2.59354 | 361 ft | 0 kts | 175° |
| 2026-05-06 11:11 | 49.00173 | 2.59356 | 362 ft | 6 kts | 175° |
| 2026-05-06 11:11 | 49.00115 | 2.59362 | 354 ft | 9 kts | 180° |
| 2026-05-06 11:11 | 49.00059 | 2.59338 | 361 ft | 10 kts | 201° |
| 2026-05-06 11:12 | 49.00011 | 2.59319 | 354 ft | 11 kts | 186° |
| 2026-05-06 11:12 | 48.99924 | 2.59275 | 361 ft | 10 kts | 227° |
| 2026-05-06 11:12 | 48.99878 | 2.59149 | 360 ft | 15 kts | 245° |
| 2026-05-06 11:12 | 48.99830 | 2.58995 | 359 ft | 18 kts | 245° |
| 2026-05-06 11:13 | 48.99769 | 2.58793 | 357 ft | 24 kts | 246° |
| 2026-05-06 11:13 | 48.99742 | 2.58617 | 359 ft | 28 kts | 264° |
| 2026-05-06 11:13 | 48.99719 | 2.57998 | 355 ft | 92 kts | 271° |
| 2026-05-06 11:13 | 48.99686 | 2.56728 | 362 ft | 145 kts | 272° |
| 2026-05-06 11:14 | 48.99753 | 2.54980 | 442 ft | 181 kts | 274° |
| 2026-05-06 11:14 | 48.99647 | 2.53016 | 995 ft | 187 kts | 267° |
| 2026-05-06 11:14 | 48.99494 | 2.51053 | 1629 ft | 198 kts | 266° |
| 2026-05-06 11:14 | 48.99334 | 2.48857 | 1945 ft | 220 kts | 268° |
| 2026-05-06 11:15 | 48.99167 | 2.46409 | 2376 ft | 245 kts | 267° |
| 2026-05-06 11:15 | 48.98990 | 2.43741 | 3131 ft | 259 kts | 266° |
| 2026-05-06 11:15 | 48.98435 | 2.41101 | 4086 ft | 270 kts | 242° |
| 2026-05-06 11:15 | 48.97085 | 2.39000 | 5020 ft | 284 kts | 212° |
| 2026-05-06 11:16 | 48.95188 | 2.38128 | 5992 ft | 292 kts | 181° |
| 2026-05-06 11:16 | 48.93241 | 2.38759 | 6901 ft | 293 kts | 150° |
| 2026-05-06 11:16 | 48.91732 | 2.40781 | 7828 ft | 291 kts | 120° |
| 2026-05-06 11:16 | 48.91040 | 2.43631 | 8710 ft | 290 kts | 98° |
| 2026-05-06 11:17 | 48.90697 | 2.46678 | 9595 ft | 295 kts | 99° |
| 2026-05-06 11:17 | 48.90357 | 2.49793 | 10216 ft | 307 kts | 99° |
| 2026-05-06 11:17 | 48.89993 | 2.53121 | 10500 ft | 331 kts | 100° |
| 2026-05-06 11:17 | 48.89597 | 2.56695 | 10749 ft | 355 kts | 99° |
| 2026-05-06 11:18 | 48.89172 | 2.60506 | 10889 ft | 377 kts | 100° |
| 2026-05-06 11:18 | 48.88718 | 2.64537 | 11021 ft | 396 kts | 100° |
| 2026-05-06 11:18 | 48.88243 | 2.68723 | 11388 ft | 404 kts | 99° |
| 2026-05-06 11:18 | 48.87760 | 2.72948 | 11933 ft | 407 kts | 99° |
| 2026-05-06 11:19 | 48.87274 | 2.77209 | 12475 ft | 411 kts | 99° |
| 2026-05-06 11:19 | 48.86784 | 2.81514 | 12954 ft | 415 kts | 99° |
| 2026-05-06 11:19 | 48.86287 | 2.85841 | 13525 ft | 417 kts | 99° |
| 2026-05-06 11:19 | 48.85783 | 2.90188 | 14011 ft | 420 kts | 99° |
| 2026-05-06 11:20 | 48.85273 | 2.94575 | 14495 ft | 424 kts | 99° |
| 2026-05-06 11:20 | 48.84918 | 2.99027 | 14995 ft | 425 kts | 92° |
| 2026-05-06 11:20 | 48.85031 | 3.03514 | 15445 ft | 427 kts | 83° |
| 2026-05-06 11:20 | 48.85617 | 3.07944 | 15867 ft | 430 kts | 75° |
| 2026-05-06 11:21 | 48.86397 | 3.12336 | 16327 ft | 431 kts | 75° |
| 2026-05-06 11:21 | 48.87167 | 3.16695 | 16715 ft | 435 kts | 75° |
| 2026-05-06 11:21 | 48.87950 | 3.21143 | 17149 ft | 437 kts | 76° |
| 2026-05-06 11:21 | 48.88736 | 3.25621 | 17533 ft | 441 kts | 76° |
| 2026-05-06 11:22 | 48.89525 | 3.30137 | 17966 ft | 443 kts | 76° |
| 2026-05-06 11:22 | 48.90314 | 3.34672 | 18317 ft | 446 kts | 76° |
| 2026-05-06 11:22 | 48.91106 | 3.39252 | 18666 ft | 448 kts | 76° |
| 2026-05-06 11:22 | 48.91896 | 3.43843 | 19015 ft | 451 kts | 77° |
| 2026-05-06 11:23 | 48.92692 | 3.48462 | 19353 ft | 453 kts | 76° |
| 2026-05-06 11:23 | 48.93374 | 3.53148 | 19677 ft | 454 kts | 83° |
| 2026-05-06 11:23 | 48.93596 | 3.57924 | 20010 ft | 454 kts | 92° |
| 2026-05-06 11:23 | 48.93394 | 3.62709 | 20343 ft | 455 kts | 96° |
| 2026-05-06 11:24 | 48.93129 | 3.67513 | 20649 ft | 457 kts | 96° |
| 2026-05-06 11:24 | 48.92871 | 3.72341 | 20957 ft | 459 kts | 96° |
| 2026-05-06 11:24 | 48.92617 | 3.77193 | 21259 ft | 461 kts | 96° |
| 2026-05-06 11:24 | 48.92361 | 3.82062 | 21531 ft | 464 kts | 96° |
| 2026-05-06 11:25 | 48.92100 | 3.86958 | 21841 ft | 465 kts | 96° |
| 2026-05-06 11:25 | 48.91831 | 3.91867 | 22114 ft | 467 kts | 96° |
| 2026-05-06 11:25 | 48.91559 | 3.96806 | 22385 ft | 469 kts | 96° |
| 2026-05-06 11:25 | 48.91284 | 4.01755 | 22671 ft | 471 kts | 96° |
| 2026-05-06 11:26 | 48.91006 | 4.06728 | 22927 ft | 473 kts | 96° |
| 2026-05-06 11:26 | 48.90725 | 4.11715 | 23208 ft | 474 kts | 96° |
| 2026-05-06 11:26 | 48.90421 | 4.16723 | 23449 ft | 476 kts | 99° |
| 2026-05-06 11:26 | 48.89775 | 4.21587 | 23654 ft | 476 kts | 107° |
| 2026-05-06 11:27 | 48.88660 | 4.26319 | 23896 ft | 475 kts | 116° |
| 2026-05-06 11:27 | 48.87144 | 4.30766 | 24207 ft | 473 kts | 121° |
| 2026-05-06 11:27 | 48.85541 | 4.35133 | 24514 ft | 472 kts | 120° |
| 2026-05-06 11:27 | 48.83947 | 4.39490 | 24854 ft | 471 kts | 120° |
| 2026-05-06 11:28 | 48.82362 | 4.43821 | 25266 ft | 468 kts | 120° |
| 2026-05-06 11:28 | 48.80784 | 4.48133 | 25710 ft | 466 kts | 120° |
| 2026-05-06 11:28 | 48.79209 | 4.52427 | 26153 ft | 465 kts | 121° |
| 2026-05-06 11:28 | 48.77637 | 4.56695 | 26631 ft | 463 kts | 121° |
| 2026-05-06 11:29 | 48.76068 | 4.60946 | 27111 ft | 461 kts | 121° |
| 2026-05-06 11:29 | 48.74506 | 4.65171 | 27622 ft | 459 kts | 121° |
| 2026-05-06 11:29 | 48.72943 | 4.69380 | 28135 ft | 457 kts | 121° |
| 2026-05-06 11:29 | 48.71385 | 4.73574 | 28572 ft | 456 kts | 121° |
| 2026-05-06 11:30 | 48.69835 | 4.77744 | 28955 ft | 454 kts | 121° |
| 2026-05-06 11:30 | 48.68289 | 4.81893 | 29371 ft | 451 kts | 122° |
| 2026-05-06 11:30 | 48.66756 | 4.86008 | 29891 ft | 446 kts | 122° |
| 2026-05-06 11:30 | 48.65237 | 4.90078 | 30264 ft | 444 kts | 122° |
| 2026-05-06 11:31 | 48.63722 | 4.94138 | 30556 ft | 443 kts | 122° |
| 2026-05-06 11:31 | 48.62207 | 4.98190 | 30826 ft | 442 kts | 122° |
| 2026-05-06 11:31 | 48.60687 | 5.02240 | 31085 ft | 442 kts | 122° |
| 2026-05-06 11:31 | 48.59172 | 5.06274 | 31344 ft | 442 kts | 122° |
| 2026-05-06 11:32 | 48.57651 | 5.10313 | 31611 ft | 442 kts | 122° |
| 2026-05-06 11:32 | 48.56130 | 5.14338 | 31891 ft | 442 kts | 122° |
| 2026-05-06 11:32 | 48.54604 | 5.18362 | 32200 ft | 441 kts | 122° |
| 2026-05-06 11:32 | 48.53084 | 5.22379 | 32486 ft | 441 kts | 122° |
| 2026-05-06 11:33 | 48.51567 | 5.26398 | 32800 ft | 440 kts | 122° |
| 2026-05-06 11:33 | 48.50070 | 5.30356 | 33052 ft | 439 kts | 122° |
| 2026-05-06 11:33 | 48.48556 | 5.34355 | 33305 ft | 439 kts | 122° |
| 2026-05-06 11:33 | 48.47035 | 5.38354 | 33550 ft | 440 kts | 122° |
| 2026-05-06 11:34 | 48.45511 | 5.42354 | 33801 ft | 440 kts | 122° |
| 2026-05-06 11:34 | 48.43988 | 5.46339 | 34010 ft | 440 kts | 122° |
| 2026-05-06 11:34 | 48.42462 | 5.50329 | 34203 ft | 440 kts | 122° |
| 2026-05-06 11:34 | 48.40933 | 5.54337 | 34397 ft | 441 kts | 122° |
| 2026-05-06 11:35 | 48.39404 | 5.58339 | 34589 ft | 441 kts | 122° |
| 2026-05-06 11:35 | 48.37870 | 5.62337 | 34758 ft | 442 kts | 122° |
| 2026-05-06 11:35 | 48.36328 | 5.66344 | 34832 ft | 445 kts | 122° |
| 2026-05-06 11:36 | 48.33200 | 5.74450 | 34839 ft | 450 kts | 123° |
| 2026-05-06 11:36 | 48.30097 | 5.82646 | 34838 ft | 452 kts | 120° |
| 2026-05-06 11:37 | 48.27354 | 5.91156 | 34839 ft | 454 kts | 117° |
| 2026-05-06 11:37 | 48.24754 | 5.99812 | 34836 ft | 455 kts | 117° |
| 2026-05-06 11:38 | 48.22088 | 6.08418 | 34823 ft | 455 kts | 118° |
| 2026-05-06 11:38 | 48.19339 | 6.16966 | 34821 ft | 455 kts | 119° |
| 2026-05-06 11:39 | 48.16573 | 6.25506 | 34822 ft | 456 kts | 119° |
| 2026-05-06 11:39 | 48.13811 | 6.34058 | 34826 ft | 456 kts | 118° |
| 2026-05-06 11:40 | 48.11064 | 6.42556 | 34814 ft | 456 kts | 120° |
| 2026-05-06 11:40 | 48.08284 | 6.51116 | 34822 ft | 458 kts | 120° |
| 2026-05-06 11:41 | 48.05490 | 6.59671 | 34826 ft | 458 kts | 120° |
| 2026-05-06 11:41 | 48.02687 | 6.68241 | 34836 ft | 459 kts | 120° |
| 2026-05-06 11:42 | 47.99888 | 6.76816 | 34841 ft | 460 kts | 120° |
| 2026-05-06 11:42 | 47.97076 | 6.85387 | 34823 ft | 460 kts | 121° |
| 2026-05-06 11:43 | 47.94244 | 6.93949 | 34832 ft | 459 kts | 121° |
| 2026-05-06 11:43 | 47.91415 | 7.02490 | 34837 ft | 460 kts | 121° |
| 2026-05-06 11:44 | 47.87156 | 7.15293 | 34833 ft | 460 kts | 121° |
| 2026-05-06 11:44 | 47.84319 | 7.23770 | 34814 ft | 460 kts | 122° |
| 2026-05-06 11:45 | 47.81471 | 7.32284 | 34832 ft | 459 kts | 122° |
| 2026-05-06 11:45 | 47.78620 | 7.40780 | 34847 ft | 459 kts | 122° |
| 2026-05-06 11:46 | 47.75753 | 7.49272 | 34853 ft | 459 kts | 122° |
| 2026-05-06 11:46 | 47.72587 | 7.57429 | 34863 ft | 451 kts | 132° |
| 2026-05-06 11:47 | 47.68871 | 7.64925 | 34847 ft | 451 kts | 133° |
| 2026-05-06 11:47 | 47.65151 | 7.72415 | 34846 ft | 451 kts | 133° |
| 2026-05-06 11:48 | 47.61427 | 7.79888 | 34850 ft | 451 kts | 133° |
| 2026-05-06 11:48 | 47.57700 | 7.87365 | 34857 ft | 451 kts | 133° |
| 2026-05-06 11:49 | 47.53963 | 7.94836 | 34860 ft | 451 kts | 133° |
| 2026-05-06 11:49 | 47.50220 | 8.02282 | 34867 ft | 451 kts | 133° |
| 2026-05-06 11:50 | 47.46479 | 8.09717 | 34866 ft | 450 kts | 133° |
| 2026-05-06 11:50 | 47.42746 | 8.17115 | 34857 ft | 448 kts | 133° |
| 2026-05-06 11:51 | 47.39009 | 8.24494 | 34862 ft | 449 kts | 134° |
| 2026-05-06 11:51 | 47.35267 | 8.31862 | 34848 ft | 449 kts | 134° |
| 2026-05-06 11:52 | 47.31537 | 8.39194 | 34837 ft | 450 kts | 134° |
| 2026-05-06 11:52 | 47.27773 | 8.46579 | 34817 ft | 451 kts | 134° |
| 2026-05-06 11:53 | 47.24013 | 8.53973 | 34822 ft | 452 kts | 133° |
| 2026-05-06 11:53 | 47.20313 | 8.61468 | 34829 ft | 453 kts | 133° |
| 2026-05-06 11:54 | 47.16630 | 8.68987 | 34798 ft | 453 kts | 133° |
| 2026-05-06 11:54 | 47.12922 | 8.76485 | 34832 ft | 454 kts | 133° |
| 2026-05-06 11:55 | 47.09191 | 8.83972 | 34845 ft | 455 kts | 133° |
| 2026-05-06 11:55 | 47.05454 | 8.91447 | 34833 ft | 454 kts | 133° |
| 2026-05-06 11:56 | 47.01710 | 8.98927 | 34837 ft | 455 kts | 134° |
| 2026-05-06 11:56 | 46.97956 | 9.06414 | 34792 ft | 455 kts | 134° |
| 2026-05-06 11:57 | 46.94202 | 9.13859 | 34806 ft | 455 kts | 134° |
| 2026-05-06 11:57 | 46.90437 | 9.21308 | 34803 ft | 455 kts | 134° |
| 2026-05-06 11:58 | 46.86669 | 9.28760 | 34817 ft | 456 kts | 134° |
| 2026-05-06 11:58 | 46.83532 | 9.34942 | 34814 ft | 456 kts | 134° |
| 2026-05-06 11:59 | 46.79747 | 9.42378 | 34774 ft | 456 kts | 135° |
| 2026-05-06 11:59 | 46.75952 | 9.49824 | 34786 ft | 458 kts | 135° |
| 2026-05-06 12:00 | 46.72138 | 9.57280 | 34820 ft | 458 kts | 135° |
| 2026-05-06 12:00 | 46.68321 | 9.64725 | 34843 ft | 459 kts | 135° |
| 2026-05-06 12:01 | 46.64492 | 9.72165 | 34854 ft | 458 kts | 135° |
| 2026-05-06 12:01 | 46.60686 | 9.79553 | 34858 ft | 460 kts | 135° |
| 2026-05-06 12:02 | 46.56845 | 9.86992 | 34866 ft | 459 kts | 135° |
| 2026-05-06 12:02 | 46.52989 | 9.94406 | 34866 ft | 459 kts | 135° |
| 2026-05-06 12:03 | 46.49144 | 10.01798 | 34877 ft | 458 kts | 136° |
| 2026-05-06 12:03 | 46.45198 | 10.09001 | 34880 ft | 454 kts | 139° |
| 2026-05-06 12:04 | 46.41020 | 10.15825 | 34862 ft | 451 kts | 141° |
| 2026-05-06 12:04 | 46.36801 | 10.22562 | 34857 ft | 452 kts | 141° |
| 2026-05-06 12:05 | 46.32619 | 10.29376 | 34863 ft | 452 kts | 140° |
| 2026-05-06 12:05 | 46.28491 | 10.36175 | 34864 ft | 452 kts | 140° |
| 2026-05-06 12:06 | 46.24329 | 10.43013 | 34839 ft | 453 kts | 141° |
| 2026-05-06 12:06 | 46.20165 | 10.49816 | 34859 ft | 452 kts | 141° |
| 2026-05-06 12:07 | 46.15979 | 10.56617 | 34885 ft | 451 kts | 141° |
| 2026-05-06 12:07 | 46.11807 | 10.63384 | 34893 ft | 451 kts | 141° |
| 2026-05-06 12:08 | 46.07662 | 10.70107 | 34903 ft | 452 kts | 141° |
| 2026-05-06 12:08 | 46.03487 | 10.76862 | 34860 ft | 452 kts | 141° |
| 2026-05-06 12:09 | 45.99296 | 10.83614 | 34873 ft | 452 kts | 141° |
| 2026-05-06 12:09 | 45.95106 | 10.90345 | 34883 ft | 452 kts | 141° |
| 2026-05-06 12:10 | 45.90908 | 10.97082 | 34897 ft | 453 kts | 141° |
| 2026-05-06 12:10 | 45.86709 | 11.03805 | 34899 ft | 452 kts | 141° |
| 2026-05-06 12:11 | 45.82499 | 11.10522 | 34873 ft | 453 kts | 140° |
| 2026-05-06 12:11 | 45.78285 | 11.17224 | 34891 ft | 452 kts | 140° |
| 2026-05-06 12:12 | 45.74075 | 11.23913 | 34908 ft | 452 kts | 140° |
| 2026-05-06 12:12 | 45.69865 | 11.30583 | 34909 ft | 451 kts | 140° |
| 2026-05-06 12:13 | 45.65681 | 11.37192 | 34924 ft | 451 kts | 140° |
| 2026-05-06 12:13 | 45.61467 | 11.43838 | 34925 ft | 452 kts | 140° |
| 2026-05-06 12:14 | 45.57247 | 11.50490 | 34904 ft | 451 kts | 140° |
| 2026-05-06 12:14 | 45.53017 | 11.57121 | 34906 ft | 452 kts | 140° |
| 2026-05-06 12:15 | 45.48776 | 11.63745 | 34911 ft | 452 kts | 140° |
| 2026-05-06 12:15 | 45.44535 | 11.70374 | 34912 ft | 453 kts | 140° |
| 2026-05-06 12:16 | 45.40285 | 11.77010 | 34894 ft | 453 kts | 140° |
| 2026-05-06 12:16 | 45.36045 | 11.83584 | 34903 ft | 453 kts | 140° |
| 2026-05-06 12:17 | 45.31776 | 11.90192 | 34905 ft | 454 kts | 140° |
| 2026-05-06 12:17 | 45.27505 | 11.96803 | 34919 ft | 454 kts | 140° |
| 2026-05-06 12:18 | 45.23228 | 12.03420 | 34914 ft | 455 kts | 140° |
| 2026-05-06 12:18 | 45.18942 | 12.10023 | 34905 ft | 454 kts | 140° |
| 2026-05-06 12:19 | 45.14660 | 12.16598 | 34911 ft | 454 kts | 140° |
| 2026-05-06 12:19 | 45.10393 | 12.23124 | 34900 ft | 454 kts | 140° |
| 2026-05-06 12:20 | 45.06087 | 12.29685 | 34909 ft | 454 kts | 140° |
| 2026-05-06 12:20 | 45.01703 | 12.36104 | 34905 ft | 453 kts | 141° |
| 2026-05-06 12:21 | 44.97269 | 12.42443 | 34907 ft | 454 kts | 142° |
| 2026-05-06 12:21 | 44.92838 | 12.48797 | 34924 ft | 454 kts | 141° |
| 2026-05-06 12:22 | 44.88416 | 12.55177 | 34911 ft | 455 kts | 141° |
| 2026-05-06 12:22 | 44.83992 | 12.61549 | 34915 ft | 454 kts | 141° |
| 2026-05-06 12:23 | 44.79602 | 12.67854 | 34904 ft | 453 kts | 141° |
| 2026-05-06 12:23 | 44.75186 | 12.74182 | 34915 ft | 453 kts | 141° |
| 2026-05-06 12:24 | 44.70762 | 12.80490 | 34921 ft | 452 kts | 141° |
| 2026-05-06 12:24 | 44.66333 | 12.86790 | 34918 ft | 452 kts | 141° |
| 2026-05-06 12:25 | 44.61909 | 12.93081 | 34879 ft | 452 kts | 141° |
| 2026-05-06 12:25 | 44.57515 | 12.99317 | 34895 ft | 452 kts | 141° |
| 2026-05-06 12:26 | 44.53089 | 13.05584 | 34911 ft | 452 kts | 141° |
| 2026-05-06 12:26 | 44.48663 | 13.11833 | 34918 ft | 452 kts | 141° |
| 2026-05-06 12:27 | 44.44230 | 13.18071 | 34925 ft | 452 kts | 141° |
| 2026-05-06 12:27 | 44.39793 | 13.24306 | 34903 ft | 452 kts | 141° |
| 2026-05-06 12:28 | 44.35352 | 13.30533 | 34914 ft | 453 kts | 141° |
| 2026-05-06 12:28 | 44.30900 | 13.36765 | 34917 ft | 453 kts | 141° |
| 2026-05-06 12:29 | 44.26441 | 13.42983 | 34929 ft | 453 kts | 141° |
| 2026-05-06 12:29 | 44.22012 | 13.49146 | 34936 ft | 453 kts | 141° |
| 2026-05-06 12:30 | 44.17551 | 13.55351 | 34898 ft | 453 kts | 141° |
| 2026-05-06 12:30 | 44.13072 | 13.61555 | 34912 ft | 454 kts | 141° |
| 2026-05-06 12:31 | 44.08769 | 13.68046 | 34918 ft | 459 kts | 136° |
| 2026-05-06 12:31 | 44.04681 | 13.74886 | 34927 ft | 460 kts | 136° |
| 2026-05-06 12:32 | 44.00582 | 13.81715 | 34943 ft | 460 kts | 136° |
| 2026-05-06 12:32 | 43.96480 | 13.88536 | 34941 ft | 460 kts | 136° |
| 2026-05-06 12:33 | 43.92405 | 13.95300 | 34963 ft | 459 kts | 136° |
| 2026-05-06 12:33 | 43.88302 | 14.02091 | 34965 ft | 459 kts | 136° |
| 2026-05-06 12:34 | 43.84191 | 14.08867 | 34973 ft | 458 kts | 136° |
| 2026-05-06 12:34 | 43.80081 | 14.15616 | 34973 ft | 458 kts | 136° |
| 2026-05-06 12:35 | 43.75627 | 14.21831 | 34955 ft | 453 kts | 142° |
| 2026-05-06 12:35 | 43.71092 | 14.27796 | 34938 ft | 453 kts | 142° |
| 2026-05-06 12:36 | 43.66509 | 14.33799 | 34943 ft | 454 kts | 142° |
| 2026-05-06 12:36 | 43.61916 | 14.39815 | 34953 ft | 455 kts | 142° |
| 2026-05-06 12:37 | 43.57315 | 14.45835 | 34955 ft | 456 kts | 142° |
| 2026-05-06 12:37 | 43.52706 | 14.51856 | 34970 ft | 456 kts | 142° |
| 2026-05-06 12:38 | 43.48090 | 14.57859 | 34960 ft | 456 kts | 142° |
| 2026-05-06 12:38 | 43.43471 | 14.63863 | 34961 ft | 457 kts | 142° |
| 2026-05-06 12:39 | 43.38831 | 14.69873 | 34966 ft | 458 kts | 143° |
| 2026-05-06 12:39 | 43.34208 | 14.75843 | 34943 ft | 461 kts | 142° |
| 2026-05-06 12:40 | 43.29520 | 14.81901 | 34943 ft | 464 kts | 142° |
| 2026-05-06 12:40 | 43.24822 | 14.87997 | 34929 ft | 466 kts | 142° |
| 2026-05-06 12:41 | 43.20100 | 14.94114 | 34925 ft | 467 kts | 142° |
| 2026-05-06 12:41 | 43.15362 | 15.00225 | 34943 ft | 467 kts | 142° |
| 2026-05-06 12:42 | 43.10657 | 15.06282 | 34960 ft | 468 kts | 142° |
| 2026-05-06 12:42 | 43.05918 | 15.12376 | 34962 ft | 468 kts | 142° |
| 2026-05-06 12:43 | 43.01176 | 15.18472 | 34963 ft | 468 kts | 142° |
| 2026-05-06 12:43 | 42.96416 | 15.24557 | 34962 ft | 468 kts | 143° |
| 2026-05-06 12:44 | 42.91639 | 15.30641 | 34947 ft | 469 kts | 142° |
| 2026-05-06 12:44 | 42.86895 | 15.36676 | 34961 ft | 469 kts | 142° |
| 2026-05-06 12:45 | 42.82120 | 15.42745 | 34971 ft | 470 kts | 142° |
| 2026-05-06 12:46 | 42.74951 | 15.51851 | 34966 ft | 470 kts | 142° |
| 2026-05-06 12:46 | 42.70156 | 15.57916 | 34968 ft | 471 kts | 142° |
| 2026-05-06 12:47 | 42.65347 | 15.63976 | 34967 ft | 471 kts | 142° |
| 2026-05-06 12:47 | 42.61346 | 15.69009 | 34959 ft | 472 kts | 142° |
| 2026-05-06 12:48 | 42.56514 | 15.75070 | 34961 ft | 473 kts | 142° |
| 2026-05-06 12:48 | 42.51674 | 15.81129 | 34961 ft | 473 kts | 142° |
| 2026-05-06 12:49 | 42.46835 | 15.87182 | 34958 ft | 474 kts | 142° |
| 2026-05-06 12:49 | 42.41974 | 15.93254 | 34972 ft | 475 kts | 142° |
| 2026-05-06 12:50 | 42.37117 | 15.99307 | 34974 ft | 475 kts | 142° |
| 2026-05-06 12:50 | 42.32246 | 16.05363 | 34959 ft | 476 kts | 141° |
| 2026-05-06 12:51 | 42.27395 | 16.11369 | 34953 ft | 477 kts | 141° |
| 2026-05-06 12:51 | 42.22467 | 16.17469 | 34963 ft | 478 kts | 141° |
| 2026-05-06 12:52 | 42.17598 | 16.23478 | 34980 ft | 478 kts | 141° |
| 2026-05-06 12:52 | 42.12683 | 16.29514 | 34985 ft | 478 kts | 142° |
| 2026-05-06 12:53 | 42.07764 | 16.35538 | 34983 ft | 478 kts | 142° |
| 2026-05-06 12:53 | 42.02851 | 16.41571 | 34978 ft | 478 kts | 142° |
| 2026-05-06 12:54 | 41.97938 | 16.47608 | 34992 ft | 478 kts | 142° |
| 2026-05-06 12:54 | 41.93018 | 16.53609 | 35003 ft | 478 kts | 142° |
| 2026-05-06 12:55 | 41.88119 | 16.59570 | 35000 ft | 477 kts | 142° |
| 2026-05-06 12:55 | 41.83190 | 16.65546 | 35007 ft | 477 kts | 142° |
| 2026-05-06 12:56 | 41.78260 | 16.71515 | 34987 ft | 477 kts | 142° |
| 2026-05-06 12:56 | 41.73332 | 16.77491 | 34993 ft | 478 kts | 142° |
| 2026-05-06 12:57 | 41.68397 | 16.83454 | 34998 ft | 478 kts | 142° |
| 2026-05-06 12:57 | 41.63456 | 16.89393 | 35001 ft | 478 kts | 143° |
| 2026-05-06 12:58 | 41.58523 | 16.95338 | 35003 ft | 478 kts | 142° |
| 2026-05-06 12:58 | 41.53578 | 17.01280 | 35004 ft | 478 kts | 143° |
| 2026-05-06 12:59 | 41.48657 | 17.07153 | 35007 ft | 478 kts | 142° |
| 2026-05-06 12:59 | 41.43695 | 17.13074 | 35005 ft | 478 kts | 142° |
| 2026-05-06 13:00 | 41.38738 | 17.18996 | 35011 ft | 478 kts | 142° |
| 2026-05-06 13:00 | 41.33777 | 17.24908 | 35015 ft | 479 kts | 142° |
| 2026-05-06 13:01 | 41.28806 | 17.30812 | 35003 ft | 479 kts | 143° |
| 2026-05-06 13:01 | 41.23825 | 17.36703 | 35002 ft | 480 kts | 143° |
| 2026-05-06 13:02 | 41.18813 | 17.42621 | 35001 ft | 481 kts | 142° |
| 2026-05-06 13:02 | 41.13814 | 17.48515 | 35026 ft | 481 kts | 142° |
| 2026-05-06 13:03 | 41.08838 | 17.54369 | 35033 ft | 480 kts | 142° |
| 2026-05-06 13:03 | 41.03838 | 17.60248 | 35022 ft | 480 kts | 142° |
| 2026-05-06 13:04 | 40.98836 | 17.66117 | 35027 ft | 481 kts | 142° |
| 2026-05-06 13:04 | 40.93825 | 17.71978 | 35033 ft | 481 kts | 142° |
| 2026-05-06 13:05 | 40.88808 | 17.77836 | 35046 ft | 481 kts | 142° |
| 2026-05-06 13:05 | 40.83793 | 17.83671 | 35051 ft | 480 kts | 142° |
| 2026-05-06 13:06 | 40.78780 | 17.89483 | 35053 ft | 479 kts | 142° |
| 2026-05-06 13:06 | 40.73768 | 17.95290 | 35051 ft | 479 kts | 142° |
| 2026-05-06 13:07 | 40.68792 | 18.01054 | 35050 ft | 479 kts | 142° |
| 2026-05-06 13:07 | 40.63783 | 18.06839 | 35044 ft | 479 kts | 142° |
| 2026-05-06 13:08 | 40.58766 | 18.12621 | 35046 ft | 479 kts | 142° |
| 2026-05-06 13:08 | 40.53749 | 18.18392 | 35045 ft | 479 kts | 142° |
| 2026-05-06 13:09 | 40.48720 | 18.24163 | 35050 ft | 479 kts | 142° |
| 2026-05-06 13:09 | 40.43697 | 18.29914 | 35060 ft | 479 kts | 142° |
| 2026-05-06 13:10 | 40.38668 | 18.35660 | 35067 ft | 479 kts | 142° |
| 2026-05-06 13:10 | 40.33670 | 18.41370 | 35066 ft | 479 kts | 142° |
| 2026-05-06 13:11 | 40.28642 | 18.47098 | 35065 ft | 479 kts | 142° |
| 2026-05-06 13:11 | 40.23607 | 18.52813 | 35052 ft | 479 kts | 142° |
| 2026-05-06 13:12 | 40.18567 | 18.58530 | 35067 ft | 479 kts | 142° |
| 2026-05-06 13:12 | 40.13524 | 18.64222 | 35077 ft | 479 kts | 143° |
| 2026-05-06 13:13 | 40.08475 | 18.69911 | 35083 ft | 479 kts | 143° |
| 2026-05-06 13:13 | 40.03433 | 18.75598 | 35090 ft | 479 kts | 142° |
| 2026-05-06 13:14 | 39.98410 | 18.81251 | 35077 ft | 479 kts | 142° |
| 2026-05-06 13:14 | 39.93353 | 18.86927 | 35077 ft | 480 kts | 142° |
| 2026-05-06 13:15 | 39.88289 | 18.92601 | 35076 ft | 481 kts | 142° |
| 2026-05-06 13:15 | 39.83226 | 18.98281 | 35084 ft | 481 kts | 140° |
| 2026-05-06 13:16 | 39.78882 | 19.04973 | 35085 ft | 486 kts | 129° |
| 2026-05-06 13:16 | 39.74899 | 19.12104 | 35088 ft | 487 kts | 129° |
| 2026-05-06 13:17 | 39.70920 | 19.19233 | 35083 ft | 487 kts | 128° |
| 2026-05-06 13:17 | 39.66956 | 19.26313 | 35090 ft | 487 kts | 128° |
| 2026-05-06 13:18 | 39.62958 | 19.33420 | 35089 ft | 487 kts | 129° |
| 2026-05-06 13:18 | 39.58959 | 19.40509 | 35098 ft | 488 kts | 129° |
| 2026-05-06 13:19 | 39.54947 | 19.47607 | 35103 ft | 488 kts | 129° |
| 2026-05-06 13:19 | 39.50936 | 19.54699 | 35102 ft | 488 kts | 129° |
| 2026-05-06 13:20 | 39.46924 | 19.61772 | 35108 ft | 488 kts | 129° |
| 2026-05-06 13:20 | 39.42900 | 19.68854 | 35096 ft | 488 kts | 129° |
| 2026-05-06 13:21 | 39.38877 | 19.75918 | 35100 ft | 488 kts | 129° |
| 2026-05-06 13:21 | 39.34875 | 19.82928 | 35105 ft | 488 kts | 129° |
| 2026-05-06 13:22 | 39.30833 | 19.89980 | 35108 ft | 489 kts | 129° |
| 2026-05-06 13:22 | 39.26773 | 19.97042 | 35110 ft | 489 kts | 129° |
| 2026-05-06 13:23 | 39.22719 | 20.04101 | 35111 ft | 490 kts | 129° |
| 2026-05-06 13:23 | 39.18659 | 20.11152 | 35120 ft | 490 kts | 129° |
| 2026-05-06 13:24 | 39.14595 | 20.18186 | 35116 ft | 490 kts | 129° |
| 2026-05-06 13:24 | 39.10524 | 20.25226 | 35115 ft | 490 kts | 128° |
| 2026-05-06 13:25 | 39.06474 | 20.32296 | 35118 ft | 491 kts | 128° |
| 2026-05-06 13:25 | 39.02457 | 20.39323 | 35125 ft | 491 kts | 128° |
| 2026-05-06 13:26 | 38.98399 | 20.46397 | 35125 ft | 491 kts | 128° |
| 2026-05-06 13:26 | 38.94336 | 20.53451 | 35124 ft | 491 kts | 128° |
| 2026-05-06 13:27 | 38.90266 | 20.60503 | 35139 ft | 491 kts | 129° |
| 2026-05-06 13:27 | 38.86192 | 20.67538 | 35117 ft | 491 kts | 129° |
| 2026-05-06 13:28 | 38.82081 | 20.74528 | 35113 ft | 491 kts | 129° |
| 2026-05-06 13:28 | 38.77951 | 20.81487 | 35112 ft | 490 kts | 129° |
| 2026-05-06 13:29 | 38.73815 | 20.88442 | 35109 ft | 490 kts | 129° |
| 2026-05-06 13:29 | 38.69688 | 20.95409 | 35116 ft | 491 kts | 129° |
| 2026-05-06 13:30 | 38.65581 | 21.02335 | 35109 ft | 491 kts | 129° |
| 2026-05-06 13:30 | 38.61437 | 21.09301 | 35104 ft | 491 kts | 129° |
| 2026-05-06 13:31 | 38.57290 | 21.16238 | 35111 ft | 491 kts | 129° |
| 2026-05-06 13:31 | 38.53142 | 21.23165 | 35106 ft | 491 kts | 129° |
| 2026-05-06 13:32 | 38.48997 | 21.30081 | 35098 ft | 490 kts | 129° |
| 2026-05-06 13:32 | 38.44869 | 21.36952 | 35096 ft | 490 kts | 129° |
| 2026-05-06 13:33 | 38.40727 | 21.43828 | 34763 ft | 485 kts | 129° |
| 2026-05-06 13:33 | 38.38672 | 21.47241 | 34516 ft | 485 kts | 129° |
| 2026-05-06 13:33 | 38.36618 | 21.50647 | 34283 ft | 485 kts | 130° |
| 2026-05-06 13:33 | 38.34560 | 21.54049 | 34026 ft | 485 kts | 130° |
| 2026-05-06 13:34 | 38.32492 | 21.57463 | 32985 ft | 491 kts | 129° |
| 2026-05-06 13:34 | 38.31104 | 21.59753 | 32313 ft | 494 kts | 129° |
| 2026-05-06 13:34 | 38.29004 | 21.63213 | 31653 ft | 491 kts | 129° |
| 2026-05-06 13:34 | 38.26926 | 21.66639 | 31156 ft | 489 kts | 129° |
| 2026-05-06 13:35 | 38.24845 | 21.70068 | 30663 ft | 489 kts | 129° |
| 2026-05-06 13:35 | 38.22769 | 21.73483 | 30181 ft | 489 kts | 128° |
| 2026-05-06 13:35 | 38.20686 | 21.76909 | 29622 ft | 490 kts | 128° |
| 2026-05-06 13:35 | 38.18595 | 21.80344 | 29069 ft | 491 kts | 128° |
| 2026-05-06 13:36 | 38.16492 | 21.83793 | 28526 ft | 495 kts | 128° |
| 2026-05-06 13:36 | 38.14380 | 21.87254 | 27993 ft | 497 kts | 128° |
| 2026-05-06 13:36 | 38.12254 | 21.90731 | 27466 ft | 498 kts | 128° |
| 2026-05-06 13:36 | 38.10125 | 21.94212 | 26950 ft | 500 kts | 128° |
| 2026-05-06 13:37 | 38.07988 | 21.97702 | 26449 ft | 501 kts | 128° |
| 2026-05-06 13:37 | 38.05846 | 22.01193 | 25956 ft | 502 kts | 128° |
| 2026-05-06 13:37 | 38.03693 | 22.04703 | 25472 ft | 504 kts | 128° |
| 2026-05-06 13:37 | 38.01534 | 22.08218 | 24988 ft | 506 kts | 128° |
| 2026-05-06 13:38 | 37.99367 | 22.11739 | 24519 ft | 507 kts | 128° |
| 2026-05-06 13:38 | 37.97199 | 22.15261 | 24058 ft | 507 kts | 127° |
| 2026-05-06 13:38 | 37.95033 | 22.18775 | 23596 ft | 505 kts | 127° |
| 2026-05-06 13:38 | 37.92875 | 22.22270 | 23050 ft | 502 kts | 127° |
| 2026-05-06 13:39 | 37.90730 | 22.25741 | 22526 ft | 498 kts | 127° |
| 2026-05-06 13:39 | 37.88597 | 22.29182 | 22000 ft | 495 kts | 127° |
| 2026-05-06 13:39 | 37.86483 | 22.32594 | 21487 ft | 491 kts | 127° |
| 2026-05-06 13:39 | 37.84389 | 22.35975 | 20983 ft | 483 kts | 127° |
| 2026-05-06 13:40 | 37.82332 | 22.39294 | 20295 ft | 477 kts | 127° |
| 2026-05-06 13:40 | 37.80291 | 22.42583 | 19567 ft | 473 kts | 128° |
| 2026-05-06 13:40 | 37.78267 | 22.45843 | 18870 ft | 469 kts | 128° |
| 2026-05-06 13:40 | 37.76287 | 22.49030 | 18165 ft | 466 kts | 127° |
| 2026-05-06 13:41 | 37.74264 | 22.52281 | 17364 ft | 463 kts | 128° |
| 2026-05-06 13:41 | 37.72306 | 22.55421 | 16608 ft | 459 kts | 128° |
| 2026-05-06 13:41 | 37.70453 | 22.58737 | 15838 ft | 454 kts | 117° |
| 2026-05-06 13:41 | 37.69123 | 22.62274 | 15120 ft | 450 kts | 113° |
| 2026-05-06 13:42 | 37.67838 | 22.65846 | 14560 ft | 443 kts | 113° |
| 2026-05-06 13:42 | 37.66594 | 22.69349 | 14207 ft | 431 kts | 113° |
| 2026-05-06 13:42 | 37.65391 | 22.72749 | 13849 ft | 420 kts | 113° |
| 2026-05-06 13:42 | 37.64214 | 22.76073 | 13455 ft | 410 kts | 113° |
| 2026-05-06 13:43 | 37.63062 | 22.79318 | 13061 ft | 400 kts | 113° |
| 2026-05-06 13:43 | 37.61933 | 22.82482 | 12675 ft | 392 kts | 113° |
| 2026-05-06 13:43 | 37.60821 | 22.85586 | 12287 ft | 384 kts | 114° |
| 2026-05-06 13:43 | 37.59732 | 22.88616 | 11916 ft | 376 kts | 114° |
| 2026-05-06 13:44 | 37.58662 | 22.91592 | 11480 ft | 370 kts | 114° |
| 2026-05-06 13:44 | 37.57604 | 22.94535 | 10994 ft | 366 kts | 114° |
| 2026-05-06 13:44 | 37.56587 | 22.97460 | 10513 ft | 370 kts | 109° |
| 2026-05-06 13:44 | 37.56122 | 23.00728 | 10034 ft | 381 kts | 89° |
| 2026-05-06 13:45 | 37.56552 | 23.03977 | 9522 ft | 373 kts | 69° |
| 2026-05-06 13:45 | 37.59148 | 23.09453 | 8497 ft | 359 kts | 55° |
| 2026-05-06 13:45 | 37.60529 | 23.12052 | 7992 ft | 354 kts | 55° |
| 2026-05-06 13:46 | 37.61886 | 23.14610 | 7499 ft | 349 kts | 55° |
| 2026-05-06 13:46 | 37.63222 | 23.17137 | 7072 ft | 342 kts | 55° |
| 2026-05-06 13:46 | 37.64509 | 23.19578 | 6973 ft | 326 kts | 55° |
| 2026-05-06 13:46 | 37.65724 | 23.21892 | 6991 ft | 307 kts | 55° |
| 2026-05-06 13:47 | 37.66869 | 23.24072 | 6991 ft | 290 kts | 55° |
| 2026-05-06 13:47 | 37.67971 | 23.26164 | 6991 ft | 284 kts | 55° |
| 2026-05-06 13:47 | 37.69064 | 23.28241 | 6991 ft | 283 kts | 55° |
| 2026-05-06 13:47 | 37.70141 | 23.30287 | 6991 ft | 283 kts | 55° |
| 2026-05-06 13:48 | 37.71231 | 23.32361 | 6994 ft | 283 kts | 55° |
| 2026-05-06 13:48 | 37.72320 | 23.34435 | 6993 ft | 283 kts | 55° |
| 2026-05-06 13:48 | 37.73408 | 23.36509 | 6993 ft | 283 kts | 55° |
| 2026-05-06 13:48 | 37.74500 | 23.38585 | 6994 ft | 283 kts | 55° |
| 2026-05-06 13:49 | 37.75588 | 23.40658 | 6993 ft | 283 kts | 55° |
| 2026-05-06 13:49 | 37.76598 | 23.42798 | 6995 ft | 284 kts | 60° |
| 2026-05-06 13:49 | 37.77546 | 23.44986 | 6993 ft | 284 kts | 60° |
| 2026-05-06 13:49 | 37.78497 | 23.47182 | 6993 ft | 285 kts | 60° |
| 2026-05-06 13:50 | 37.79449 | 23.49382 | 6993 ft | 285 kts | 60° |
| 2026-05-06 13:50 | 37.80398 | 23.51582 | 6994 ft | 285 kts | 60° |
| 2026-05-06 13:50 | 37.81348 | 23.53786 | 6994 ft | 285 kts | 60° |
| 2026-05-06 13:50 | 37.82293 | 23.55987 | 6993 ft | 285 kts | 62° |
| 2026-05-06 13:51 | 37.82964 | 23.58343 | 6998 ft | 285 kts | 74° |
| 2026-05-06 13:51 | 37.83453 | 23.60773 | 6998 ft | 284 kts | 75° |
| 2026-05-06 13:51 | 37.83926 | 23.63200 | 7000 ft | 285 kts | 75° |
| 2026-05-06 13:51 | 37.84391 | 23.65642 | 7000 ft | 285 kts | 75° |
| 2026-05-06 13:52 | 37.84856 | 23.68077 | 7002 ft | 284 kts | 75° |
| 2026-05-06 13:52 | 37.85325 | 23.70514 | 7003 ft | 285 kts | 75° |
| 2026-05-06 13:52 | 37.85790 | 23.72954 | 7004 ft | 286 kts | 75° |
| 2026-05-06 13:52 | 37.86256 | 23.75403 | 7008 ft | 286 kts | 75° |
| 2026-05-06 13:53 | 37.86728 | 23.77812 | 7008 ft | 286 kts | 73° |
| 2026-05-06 13:53 | 37.87550 | 23.80097 | 6809 ft | 284 kts | 58° |
| 2026-05-06 13:53 | 37.88604 | 23.82191 | 6431 ft | 279 kts | 56° |
| 2026-05-06 13:53 | 37.89657 | 23.84199 | 6058 ft | 270 kts | 55° |
| 2026-05-06 13:54 | 37.90694 | 23.86176 | 5683 ft | 270 kts | 55° |
| 2026-05-06 13:54 | 37.91731 | 23.88157 | 5314 ft | 269 kts | 55° |
| 2026-05-06 13:54 | 37.92763 | 23.90122 | 5023 ft | 264 kts | 55° |
| 2026-05-06 13:54 | 37.93750 | 23.92008 | 5005 ft | 250 kts | 55° |
| 2026-05-06 13:55 | 37.94699 | 23.93837 | 5009 ft | 247 kts | 55° |
| 2026-05-06 13:55 | 37.95642 | 23.95648 | 5010 ft | 246 kts | 55° |
| 2026-05-06 13:55 | 37.96594 | 23.97455 | 5003 ft | 247 kts | 55° |
| 2026-05-06 13:55 | 37.97551 | 23.99270 | 5000 ft | 247 kts | 56° |
| 2026-05-06 13:56 | 37.98508 | 24.01078 | 5002 ft | 247 kts | 55° |
| 2026-05-06 13:56 | 37.99462 | 24.02882 | 4999 ft | 247 kts | 55° |
| 2026-05-06 13:56 | 38.00419 | 24.04698 | 4998 ft | 247 kts | 55° |
| 2026-05-06 13:56 | 38.01361 | 24.06485 | 4995 ft | 238 kts | 55° |
| 2026-05-06 13:57 | 38.02254 | 24.08183 | 4997 ft | 229 kts | 55° |
| 2026-05-06 13:57 | 38.03112 | 24.09848 | 4998 ft | 223 kts | 55° |
| 2026-05-06 13:57 | 38.03959 | 24.11508 | 4749 ft | 226 kts | 55° |
| 2026-05-06 13:57 | 38.04825 | 24.13194 | 4373 ft | 230 kts | 56° |
| 2026-05-06 13:58 | 38.05856 | 24.14749 | 3999 ft | 232 kts | 33° |
| 2026-05-06 13:58 | 38.07350 | 24.15434 | 3632 ft | 231 kts | 0° |
| 2026-05-06 13:58 | 38.08892 | 24.14977 | 3276 ft | 230 kts | 327° |
| 2026-05-06 13:58 | 38.10014 | 24.13586 | 3021 ft | 225 kts | 299° |
| 2026-05-06 13:59 | 38.10488 | 24.11737 | 2764 ft | 220 kts | 272° |
| 2026-05-06 13:59 | 38.10245 | 24.09854 | 2554 ft | 214 kts | 245° |
| 2026-05-06 13:59 | 38.09401 | 24.08365 | 2491 ft | 203 kts | 220° |
| 2026-05-06 13:59 | 38.08332 | 24.07323 | 2493 ft | 188 kts | 216° |
| 2026-05-06 14:00 | 38.07328 | 24.06362 | 2508 ft | 176 kts | 215° |
| 2026-05-06 14:00 | 38.06367 | 24.05443 | 2511 ft | 171 kts | 215° |
| 2026-05-06 14:00 | 38.05417 | 24.04536 | 2513 ft | 170 kts | 216° |
| 2026-05-06 14:00 | 38.04467 | 24.03629 | 2505 ft | 171 kts | 216° |
| 2026-05-06 14:01 | 38.03526 | 24.02730 | 2388 ft | 166 kts | 216° |
| 2026-05-06 14:01 | 38.02634 | 24.01878 | 2204 ft | 153 kts | 214° |
| 2026-05-06 14:01 | 38.01822 | 24.01101 | 2026 ft | 142 kts | 214° |
| 2026-05-06 14:01 | 38.01025 | 24.00343 | 1841 ft | 144 kts | 213° |
| 2026-05-06 14:02 | 38.00233 | 23.99576 | 1691 ft | 144 kts | 216° |
| 2026-05-06 14:02 | 37.99440 | 23.98777 | 1556 ft | 148 kts | 216° |
| 2026-05-06 14:02 | 37.98627 | 23.97977 | 1397 ft | 147 kts | 214° |
| 2026-05-06 14:02 | 37.97795 | 23.97222 | 1182 ft | 149 kts | 213° |
| 2026-05-06 14:03 | 37.96972 | 23.96472 | 918 ft | 141 kts | 213° |
| 2026-05-06 14:03 | 37.96214 | 23.95744 | 701 ft | 134 kts | 215° |
| 2026-05-06 14:03 | 37.95470 | 23.95029 | 514 ft | 136 kts | 216° |
| 2026-05-06 14:03 | 37.94702 | 23.94308 | 359 ft | 137 kts | 216° |
| 2026-05-06 14:04 | 37.93995 | 23.93646 | 296 ft | 98 kts | 217° |
| 2026-05-06 14:04 | 37.93675 | 23.93341 | 294 ft | 34 kts | 216° |
| 2026-05-06 14:04 | 37.93498 | 23.93191 | 294 ft | 26 kts | 204° |
| 2026-05-06 14:04 | 37.93330 | 23.93135 | 293 ft | 22 kts | 186° |
| 2026-05-06 14:05 | 37.93263 | 23.93152 | 299 ft | 7 kts | 144° |
| 2026-05-06 14:05 | 37.93254 | 23.93184 | 300 ft | 2 kts | 100° |
| 2026-05-06 14:05 | 37.93271 | 23.93239 | 302 ft | 16 kts | 42° |
| 2026-05-06 14:05 | 37.93356 | 23.93315 | 301 ft | 14 kts | 35° |
| 2026-05-06 14:06 | 37.93427 | 23.93393 | 299 ft | 13 kts | 59° |
| 2026-05-06 14:06 | 37.93405 | 23.93480 | 301 ft | 11 kts | 128° |
| 2026-05-06 14:06 | 37.93356 | 23.93565 | 301 ft | 13 kts | 126° |
| 2026-05-06 14:06 | 37.93294 | 23.93670 | 301 ft | 17 kts | 127° |
| 2026-05-06 14:07 | 37.93216 | 23.93798 | 302 ft | 20 kts | 126° |
| 2026-05-06 14:07 | 37.93126 | 23.93949 | 303 ft | 23 kts | 128° |
| 2026-05-06 14:07 | 37.93046 | 23.94081 | 301 ft | 11 kts | 126° |
| 2026-05-06 14:07 | 37.93060 | 23.94148 | 301 ft | 9 kts | 26° |
| 2026-05-06 14:08 | 37.93098 | 23.94180 | 303 ft | 4 kts | 39° |
| 2026-05-06 14:08 | 37.93102 | 23.94185 | 302 ft | 0 kts | 38° |